createdAt,value
2022-09-12T00:01:40.456Z,98465.56
2022-09-12T00:04:07.173Z,98461.88
2022-09-12T00:06:36.113Z,98456.84
2022-09-12T00:09:06.528Z,98455.97
2022-09-12T00:11:37.004Z,98449.47
2022-09-12T00:14:04.693Z,98459.59
2022-09-12T00:16:33.873Z,98456.06
2022-09-12T00:19:01.380Z,98453.31
2022-09-12T00:21:28.539Z,98445.22
2022-09-12T00:23:55.246Z,98444.03
2022-09-12T00:26:22.107Z,98445.66
2022-09-12T00:28:49.056Z,98447.53
2022-09-12T00:31:18.228Z,98449.16
2022-09-12T00:33:45.219Z,98451.38
2022-09-12T00:36:14.898Z,98448.56
2022-09-12T00:38:43.077Z,98447.84
2022-09-12T00:41:22.956Z,98446.72
2022-09-12T00:43:52.396Z,98441.72
2022-09-12T00:46:37.439Z,98442.44
2022-09-12T00:49:19.522Z,98439.94
2022-09-12T00:51:50.498Z,98430.84
2022-09-12T00:54:20.962Z,98432.59
2022-09-12T00:56:54.693Z,98432.16
2022-09-12T00:59:31.765Z,98418.19
2022-09-12T01:01:58.663Z,98425.53
2022-09-12T01:04:26.439Z,98424.50
2022-09-12T01:06:54.322Z,98419.66
2022-09-12T01:09:21.954Z,98414.94
2022-09-12T01:11:49.841Z,98413.59
2022-09-12T01:14:17.652Z,98417.00
2022-09-12T01:16:45.187Z,98414.78
2022-09-12T01:19:38.572Z,98412.84
2022-09-12T01:22:23.208Z,98411.53
2022-09-12T01:25:15.277Z,98410.66
2022-09-12T01:27:44.105Z,98409.31
2022-09-12T01:30:43.300Z,98401.84
2022-09-12T01:33:21.234Z,98396.53
2022-09-12T01:36:24.209Z,98400.06
2022-09-12T01:39:15.139Z,98398.16
2022-09-12T01:42:16.583Z,98403.44
2022-09-12T01:44:52.240Z,98398.47
2022-09-12T01:47:22.459Z,98401.25
2022-09-12T01:50:11.271Z,98389.78
2022-09-12T01:52:52.607Z,98392.00
2022-09-12T01:55:34.067Z,98395.38
2022-09-12T01:58:10.155Z,98386.81
2022-09-12T02:00:44.310Z,98389.78
2022-09-12T02:03:14.791Z,98384.06
2022-09-12T02:06:01.526Z,98384.66
2022-09-12T02:08:51.372Z,98388.00
2022-09-12T02:11:18.320Z,98376.88
2022-09-12T02:13:49.560Z,98373.47
2022-09-12T02:16:30.813Z,98377.72
2022-09-12T02:19:07.983Z,98372.84
2022-09-12T02:21:36.805Z,98373.00
2022-09-12T02:24:05.030Z,98370.22
2022-09-12T02:26:35.446Z,98366.25
2022-09-12T02:29:03.603Z,98360.63
2022-09-12T02:31:46.691Z,98369.47
2022-09-12T02:34:31.012Z,98366.69
2022-09-12T02:37:01.483Z,98368.44
2022-09-12T02:39:28.182Z,98371.25
2022-09-12T02:41:55.933Z,98358.31
2022-09-12T02:44:24.704Z,98359.91
2022-09-12T02:46:54.925Z,98358.31
2022-09-12T02:49:22.263Z,98360.81
2022-09-12T02:51:49.195Z,98359.19
2022-09-12T02:54:17.268Z,98364.78
2022-09-12T02:56:45.347Z,98356.06
2022-09-12T02:59:15.634Z,98366.19
2022-09-12T03:02:04.456Z,98360.31
2022-09-12T03:04:53.989Z,98360.88
2022-09-12T03:07:23.422Z,98351.66
2022-09-12T03:10:15.740Z,98348.69
2022-09-12T03:13:03.965Z,98356.03
2022-09-12T03:15:52.210Z,98352.66
2022-09-12T03:18:52.021Z,98352.66
2022-09-12T03:21:39.757Z,98358.03
2022-09-12T03:24:19.372Z,98357.06
2022-09-12T03:27:09.427Z,98361.16
2022-09-12T03:29:38.506Z,98357.06
2022-09-12T03:32:05.136Z,98362.34
2022-09-12T03:34:32.124Z,98360.00
2022-09-12T03:36:59.458Z,98362.75
2022-09-12T03:39:26.910Z,98360.97
2022-09-12T03:41:54.808Z,98357.44
2022-09-12T03:44:21.262Z,98358.47
2022-09-12T03:46:47.826Z,98362.13
2022-09-12T03:49:14.355Z,98363.63
2022-09-12T03:51:41.261Z,98357.84
2022-09-12T03:54:07.938Z,98359.63
2022-09-12T03:56:35.358Z,98364.22
2022-09-12T03:59:05.528Z,98362.47
2022-09-12T04:01:32.183Z,98358.16
2022-09-12T04:03:58.833Z,98367.41
2022-09-12T04:06:25.420Z,98363.94
2022-09-12T04:08:53.415Z,98368.19
2022-09-12T04:11:21.884Z,98362.31
2022-09-12T04:13:48.571Z,98356.38
2022-09-12T04:16:16.596Z,98356.06
2022-09-12T04:18:43.663Z,98362.16
2022-09-12T04:21:12.963Z,98358.91
2022-09-12T04:23:39.508Z,98354.19
2022-09-12T04:26:09.097Z,98354.50
2022-09-12T04:28:37.603Z,98354.41
2022-09-12T04:31:07.527Z,98354.09
2022-09-12T04:33:35.237Z,98360.16
2022-09-12T04:36:10.683Z,98357.06
2022-09-12T04:38:37.909Z,98353.31
2022-09-12T04:41:15.155Z,98352.47
2022-09-12T04:43:43.140Z,98350.91
2022-09-12T04:46:11.450Z,98352.28
2022-09-12T04:48:37.969Z,98351.97
2022-09-12T04:51:30.978Z,98352.13
2022-09-12T04:54:03.090Z,98351.44
2022-09-12T04:56:30.772Z,98356.28
2022-09-12T04:58:58.730Z,98350.44
2022-09-12T05:01:26.248Z,98357.97
2022-09-12T05:03:52.917Z,98351.63
2022-09-12T05:06:25.454Z,98357.03
2022-09-12T05:08:52.872Z,98351.13
2022-09-12T05:11:25.451Z,98352.69
2022-09-12T05:13:54.921Z,98346.44
2022-09-12T05:16:22.698Z,98358.13
2022-09-12T05:18:50.230Z,98353.88
2022-09-12T05:21:23.126Z,98355.88
2022-09-12T05:23:57.476Z,98359.38
2022-09-12T05:26:24.090Z,98361.97
2022-09-12T05:28:51.805Z,98363.56
2022-09-12T05:31:23.786Z,98361.22
2022-09-12T05:33:51.844Z,98361.38
2022-09-12T05:36:21.502Z,98361.22
2022-09-12T05:38:48.289Z,98366.91
2022-09-12T05:41:24.242Z,98359.22
2022-09-12T05:44:00.069Z,98366.81
2022-09-12T05:46:28.570Z,98375.53
2022-09-12T05:48:56.791Z,98375.09
2022-09-12T05:51:28.481Z,98372.13
2022-09-12T05:53:59.949Z,98372.44
2022-09-12T05:56:28.737Z,98367.19
2022-09-12T05:58:59.019Z,98371.47
2022-09-12T06:01:27.111Z,98368.06
2022-09-12T06:03:55.990Z,98368.81
2022-09-12T06:06:24.416Z,98373.72
2022-09-12T06:08:53.542Z,98373.41
2022-09-12T06:11:23.098Z,98374.13
2022-09-12T06:13:51.019Z,98376.53
2022-09-12T06:16:18.395Z,98365.88
2022-09-12T06:18:49.659Z,98364.22
2022-09-12T06:21:16.479Z,98361.94
2022-09-12T06:23:43.160Z,98362.75
2022-09-12T06:26:10.809Z,98360.88
2022-09-12T06:28:39.923Z,98364.88
2022-09-12T06:31:11.816Z,98368.63
2022-09-12T06:33:42.033Z,98363.22
2022-09-12T06:36:12.633Z,98368.06
2022-09-12T06:38:40.391Z,98356.03
2022-09-12T06:41:09.726Z,98363.34
2022-09-12T06:43:37.010Z,98364.09
2022-09-12T06:46:03.823Z,98362.34
2022-09-12T06:48:31.144Z,98370.63
2022-09-12T06:51:02.362Z,98353.75
2022-09-12T06:53:30.272Z,98355.19
2022-09-12T06:55:57.864Z,98363.25
2022-09-12T06:58:25.591Z,98367.78
2022-09-12T07:00:55.998Z,98366.38
2022-09-12T07:03:25.105Z,98369.91
2022-09-12T07:05:51.608Z,98370.19
2022-09-12T07:08:18.273Z,98375.19
2022-09-12T07:10:45.497Z,98372.84
2022-09-12T07:13:12.234Z,98368.91
2022-09-12T07:15:38.873Z,98370.19
2022-09-12T07:18:05.623Z,98359.34
2022-09-12T07:20:35.748Z,98360.69
2022-09-12T07:23:02.769Z,98362.59
2022-09-12T07:25:29.366Z,98358.53
2022-09-12T07:27:55.901Z,98363.66
2022-09-12T07:30:23.123Z,98363.34
2022-09-12T07:32:54.027Z,98367.13
2022-09-12T07:35:21.332Z,98372.59
2022-09-12T07:37:48.022Z,98369.25
2022-09-12T07:40:14.683Z,98360.44
2022-09-12T07:42:41.280Z,98365.25
2022-09-12T07:45:08.188Z,98360.81
2022-09-12T07:47:35.268Z,98361.69
2022-09-12T07:50:02.354Z,98365.25
2022-09-12T07:52:29.451Z,98364.63
2022-09-12T07:54:55.981Z,98365.03
2022-09-12T07:57:22.539Z,98363.09
2022-09-12T07:59:52.849Z,98365.53
2022-09-12T08:02:20.340Z,98368.22
2022-09-12T08:04:48.006Z,98371.50
2022-09-12T08:07:14.867Z,98371.00
2022-09-12T08:09:41.450Z,98363.06
2022-09-12T08:12:08.011Z,98365.00
2022-09-12T08:14:34.552Z,98363.22
2022-09-12T08:17:01.127Z,98367.59
2022-09-12T08:19:27.751Z,98369.63
2022-09-12T08:21:54.289Z,98363.22
2022-09-12T08:24:20.783Z,98355.69
2022-09-12T08:26:47.611Z,98357.88
2022-09-12T08:29:14.515Z,98357.25
2022-09-12T08:31:42.469Z,98358.69
2022-09-12T08:34:09.421Z,98357.13
2022-09-12T08:36:36.334Z,98355.31
2022-09-12T08:39:06.527Z,98352.25
2022-09-12T08:41:39.984Z,98353.47
2022-09-12T08:44:28.481Z,98348.78
2022-09-12T08:47:15.630Z,98352.06
2022-09-12T08:49:51.463Z,98347.69
2022-09-12T08:52:26.501Z,98344.88
2022-09-12T08:54:56.309Z,98339.75
2022-09-12T08:57:24.276Z,98344.78
2022-09-12T08:59:51.414Z,98346.63
2022-09-12T09:02:31.137Z,98346.09
2022-09-12T09:05:35.292Z,98339.50
2022-09-12T09:08:17.281Z,98335.97
2022-09-12T09:10:54.943Z,98333.47
2022-09-12T09:14:17.215Z,98329.47
2022-09-12T09:16:44.964Z,98325.28
2022-09-12T09:19:17.456Z,98335.50
2022-09-12T09:21:49.971Z,98325.22
2022-09-12T09:24:19.672Z,98334.31
2022-09-12T09:26:53.479Z,98326.72
2022-09-12T09:29:30.271Z,98320.75
2022-09-12T09:31:58.769Z,98319.06
2022-09-12T09:34:29.935Z,98327.72
2022-09-12T09:37:21.233Z,98328.88
2022-09-12T09:40:00.029Z,98330.97
2022-09-12T09:42:43.852Z,98323.41
2022-09-12T09:45:16.300Z,98324.13
2022-09-12T09:47:48.965Z,98322.19
2022-09-12T09:50:19.346Z,98329.47
2022-09-12T09:52:47.552Z,98330.72
2022-09-12T09:55:22.014Z,98326.13
2022-09-12T09:57:49.929Z,98322.16
2022-09-12T10:00:35.686Z,98313.59
2022-09-12T10:03:22.166Z,98314.88
2022-09-12T10:05:59.946Z,98328.53
2022-09-12T10:08:35.212Z,98318.28
2022-09-12T10:11:17.015Z,98324.06
2022-09-12T10:13:56.854Z,98318.81
2022-09-12T10:16:28.389Z,98315.91
2022-09-12T10:18:56.867Z,98307.88
2022-09-12T10:21:34.271Z,98305.72
2022-09-12T10:24:24.407Z,98307.28
2022-09-12T10:27:05.967Z,98311.22
2022-09-12T10:29:36.176Z,98305.00
2022-09-12T10:32:06.617Z,98305.56
2022-09-12T10:34:39.914Z,98311.44
2022-09-12T10:37:08.964Z,98316.59
2022-09-12T10:39:38.486Z,98312.75
2022-09-12T10:42:05.703Z,98324.56
2022-09-12T10:44:34.115Z,98305.47
2022-09-12T10:47:19.899Z,98307.88
2022-09-12T10:49:46.554Z,98301.06
2022-09-12T10:52:28.448Z,98292.88
2022-09-12T10:54:55.090Z,98283.78
2022-09-12T10:57:38.472Z,98294.19
2022-09-12T11:00:19.798Z,98283.75
2022-09-12T11:03:22.095Z,98296.09
2022-09-12T11:05:58.422Z,98283.59
2022-09-12T11:09:04.456Z,98273.50
2022-09-12T11:12:02.454Z,98268.56
2022-09-12T11:14:31.953Z,98267.38
2022-09-12T11:17:19.810Z,98268.22
2022-09-12T11:19:53.310Z,98260.94
2022-09-12T11:23:00.349Z,98261.31
2022-09-12T11:25:48.132Z,98255.91
2022-09-12T11:28:25.965Z,98256.84
2022-09-12T11:31:08.692Z,98249.00
2022-09-12T11:33:43.243Z,98246.56
2022-09-12T11:36:35.672Z,98242.69
2022-09-12T11:39:15.870Z,98243.22
2022-09-12T11:41:49.495Z,98243.72
2022-09-12T11:44:24.749Z,98235.44
2022-09-12T11:46:52.234Z,98231.59
2022-09-12T11:49:24.271Z,98238.19
2022-09-12T11:52:01.863Z,98240.34
2022-09-12T11:54:31.303Z,98229.59
2022-09-12T11:57:16.883Z,98230.31
2022-09-12T11:59:48.014Z,98219.47
2022-09-12T12:02:25.924Z,98229.50
2022-09-12T12:05:39.222Z,98221.22
2022-09-12T12:08:06.762Z,98218.22
2022-09-12T12:10:38.777Z,98216.69
2022-09-12T12:13:13.816Z,98210.97
2022-09-12T12:15:46.807Z,98211.78
2022-09-12T12:18:24.688Z,98215.19
2022-09-12T12:20:52.049Z,98207.94
2022-09-12T12:23:34.859Z,98199.59
2022-09-12T12:26:02.910Z,98195.50
2022-09-12T12:28:41.750Z,98199.00
2022-09-12T12:31:09.963Z,98192.31
2022-09-12T12:33:39.554Z,98198.53
2022-09-12T12:36:09.751Z,98193.72
2022-09-12T12:38:38.258Z,98189.22
2022-09-12T12:41:16.976Z,98188.75
2022-09-12T12:43:45.278Z,98185.84
2022-09-12T12:46:14.192Z,98180.47
2022-09-12T12:49:05.985Z,98182.94
2022-09-12T12:52:01.481Z,98178.53
2022-09-12T12:54:40.313Z,98175.66
2022-09-12T12:57:19.672Z,98169.28
2022-09-12T12:59:52.428Z,98167.72
2022-09-12T13:02:27.387Z,98178.22
2022-09-12T13:04:55.356Z,98166.94
2022-09-12T13:07:26.677Z,98171.09
2022-09-12T13:09:54.582Z,98159.88
2022-09-12T13:12:24.907Z,98154.31
2022-09-12T13:14:59.447Z,98156.34
2022-09-12T13:17:30.698Z,98149.53
2022-09-12T13:20:28.010Z,98150.44
2022-09-12T13:22:55.268Z,98151.50
2022-09-12T13:25:32.501Z,98148.09
2022-09-12T13:28:18.551Z,98140.00
2022-09-12T13:30:56.033Z,98139.88
2022-09-12T13:33:37.571Z,98139.28
2022-09-12T13:36:14.231Z,98139.09
2022-09-12T13:39:05.729Z,98127.56
2022-09-12T13:42:05.075Z,98127.63
2022-09-12T13:44:43.512Z,98127.28
2022-09-12T13:47:14.706Z,98123.00
2022-09-12T13:49:41.798Z,98118.00
2022-09-12T13:52:14.654Z,98115.56
2022-09-12T13:54:44.848Z,98119.19
2022-09-12T13:57:29.351Z,98114.59
2022-09-12T13:59:57.624Z,98108.66
2022-09-12T14:02:27.745Z,98110.09
2022-09-12T14:05:09.233Z,98099.88
2022-09-12T14:07:59.814Z,98100.19
2022-09-12T14:10:38.130Z,98099.16
2022-09-12T14:13:11.971Z,98093.56
2022-09-12T14:15:38.409Z,98094.69
2022-09-12T14:18:08.670Z,98096.41
2022-09-12T14:20:39.375Z,98097.47
2022-09-12T14:23:27.436Z,98095.13
2022-09-12T14:25:56.280Z,98091.00
2022-09-12T14:28:23.852Z,98088.78
2022-09-12T14:31:06.685Z,98093.47
2022-09-12T14:33:46.668Z,98086.06
2022-09-12T14:36:49.932Z,98082.81
2022-09-12T14:39:22.441Z,98080.41
2022-09-12T14:41:49.650Z,98081.88
2022-09-12T14:44:24.383Z,98082.22
2022-09-12T14:46:51.319Z,98082.22
2022-09-12T14:49:24.004Z,98078.50
2022-09-12T14:51:51.480Z,98078.81
2022-09-12T14:54:27.497Z,98067.94
2022-09-12T14:56:56.621Z,98074.16
2022-09-12T14:59:35.496Z,98067.88
2022-09-12T15:02:17.127Z,98067.72
2022-09-12T15:04:46.258Z,98062.25
2022-09-12T15:07:50.311Z,98064.16
2022-09-12T15:10:25.209Z,98063.94
2022-09-12T15:13:14.202Z,98067.69
2022-09-12T15:15:43.076Z,98062.75
2022-09-12T15:18:09.672Z,98061.22
2022-09-12T15:20:37.733Z,98064.56
2022-09-12T15:23:06.529Z,98053.72
2022-09-12T15:25:33.170Z,98051.53
2022-09-12T15:28:00.714Z,98051.59
2022-09-12T15:30:27.111Z,98055.94
2022-09-12T15:32:54.905Z,98060.00
2022-09-12T15:35:33.081Z,98053.78
2022-09-12T15:37:59.590Z,98052.59
2022-09-12T15:40:26.559Z,98036.81
2022-09-12T15:42:53.305Z,98042.53
2022-09-12T15:45:24.875Z,98043.97
2022-09-12T15:47:51.891Z,98047.59
2022-09-12T15:50:18.435Z,98037.69
2022-09-12T15:52:45.362Z,98036.41
2022-09-12T15:55:26.250Z,98040.91
2022-09-12T15:57:52.935Z,98029.19
2022-09-12T16:00:20.295Z,98024.03
2022-09-12T16:02:49.166Z,98021.56
2022-09-12T16:05:19.683Z,98024.75
2022-09-12T16:07:46.490Z,98032.03
2022-09-12T16:10:18.186Z,98022.56
2022-09-12T16:12:45.589Z,98019.78
2022-09-12T16:15:15.315Z,98021.38
2022-09-12T16:17:42.185Z,98011.06
2022-09-12T16:20:09.383Z,98017.63
2022-09-12T16:22:36.334Z,98011.72
2022-09-12T16:25:04.177Z,98017.13
2022-09-12T16:27:30.994Z,98007.94
2022-09-12T16:29:57.731Z,97998.50
2022-09-12T16:32:24.377Z,98000.56
2022-09-12T16:34:50.891Z,97999.00
2022-09-12T16:37:18.105Z,97996.13
2022-09-12T16:39:45.004Z,97995.75
2022-09-12T16:42:11.858Z,97998.84
2022-09-12T16:44:38.387Z,97993.47
2022-09-12T16:47:09.409Z,97997.16
2022-09-12T16:49:35.978Z,97996.22
2022-09-12T16:52:02.888Z,97991.16
2022-09-12T16:54:29.485Z,97987.06
2022-09-12T16:56:55.987Z,97991.69
2022-09-12T16:59:22.539Z,97989.50
2022-09-12T17:01:49.170Z,97989.59
2022-09-12T17:04:15.787Z,97993.59
2022-09-12T17:06:42.533Z,97990.56
2022-09-12T17:09:11.110Z,97990.50
2022-09-12T17:11:38.886Z,97984.50
2022-09-12T17:14:07.559Z,97988.44
2022-09-12T17:16:36.631Z,97997.97
2022-09-12T17:19:03.915Z,97998.91
2022-09-12T17:21:30.893Z,98002.81
2022-09-12T17:23:57.394Z,97997.66
2022-09-12T17:26:24.424Z,97994.41
2022-09-12T17:28:51.022Z,97998.59
2022-09-12T17:31:17.627Z,97991.91
2022-09-12T17:33:44.382Z,97991.84
2022-09-12T17:36:16.545Z,97994.88
2022-09-12T17:38:45.171Z,97999.56
2022-09-12T17:41:17.626Z,98003.56
2022-09-12T17:43:46.307Z,97995.47
2022-09-12T17:46:13.207Z,98004.34
2022-09-12T17:48:39.838Z,98001.34
2022-09-12T17:51:14.377Z,98001.19
2022-09-12T17:53:42.092Z,98002.34
2022-09-12T17:56:09.419Z,98010.81
2022-09-12T17:58:36.447Z,98017.59
2022-09-12T18:01:24.375Z,98011.69
2022-09-12T18:03:54.855Z,98017.19
2022-09-12T18:06:22.703Z,98022.09
2022-09-12T18:08:49.266Z,98023.78
2022-09-12T18:11:16.546Z,98020.16
2022-09-12T18:13:43.093Z,98022.00
2022-09-12T18:16:12.618Z,98017.56
2022-09-12T18:18:39.428Z,98021.19
2022-09-12T18:21:07.023Z,98009.03
2022-09-12T18:23:33.664Z,98009.91
2022-09-12T18:26:08.289Z,98013.09
2022-09-12T18:28:37.465Z,98020.78
2022-09-12T18:31:05.047Z,98019.16
2022-09-12T18:33:32.046Z,98016.59
2022-09-12T18:36:04.269Z,98015.31
2022-09-12T18:38:31.227Z,98017.59
2022-09-12T18:41:05.044Z,98012.91
2022-09-12T18:43:32.032Z,98018.91
2022-09-12T18:46:09.639Z,98018.81
2022-09-12T18:48:36.334Z,98021.22
2022-09-12T18:51:07.993Z,98013.78
2022-09-12T18:53:35.508Z,98012.69
2022-09-12T18:56:04.051Z,98017.41
2022-09-12T18:58:30.628Z,98010.13
2022-09-12T19:00:58.093Z,98022.78
2022-09-12T19:03:24.939Z,98016.50
2022-09-12T19:05:51.563Z,98017.78
2022-09-12T19:08:18.147Z,98014.88
2022-09-12T19:10:44.709Z,98010.22
2022-09-12T19:13:11.171Z,98007.41
2022-09-12T19:15:40.259Z,98019.75
2022-09-12T19:18:06.871Z,98017.19
2022-09-12T19:20:35.810Z,98013.75
2022-09-12T19:23:02.555Z,98022.72
2022-09-12T19:25:29.353Z,98020.47
2022-09-12T19:27:55.912Z,98021.53
2022-09-12T19:30:22.454Z,98029.06
2022-09-12T19:32:48.983Z,98021.13
2022-09-12T19:35:15.735Z,98013.25
2022-09-12T19:37:42.491Z,98016.41
2022-09-12T19:40:09.398Z,98006.59
2022-09-12T19:42:35.947Z,98008.72
2022-09-12T19:45:02.475Z,98006.41
2022-09-12T19:47:29.437Z,98009.47
2022-09-12T19:49:57.189Z,98010.09
2022-09-12T19:52:23.590Z,98001.22
2022-09-12T19:54:50.160Z,98002.59
2022-09-12T19:57:17.395Z,98009.34
2022-09-12T19:59:45.095Z,98002.91
2022-09-12T20:02:11.683Z,98015.25
2022-09-12T20:04:39.095Z,98012.44
2022-09-12T20:07:05.621Z,98004.19
2022-09-12T20:09:32.095Z,98008.16
2022-09-12T20:11:58.688Z,97999.72
2022-09-12T20:14:25.186Z,98008.69
2022-09-12T20:16:51.755Z,98011.94
2022-09-12T20:19:18.293Z,98002.34
2022-09-12T20:21:44.988Z,98008.06
2022-09-12T20:24:13.586Z,98012.13
2022-09-12T20:26:40.407Z,98012.13
2022-09-12T20:29:08.037Z,98000.38
2022-09-12T20:31:35.561Z,98005.88
2022-09-12T20:34:02.501Z,98001.94
2022-09-12T20:36:29.099Z,98005.16
2022-09-12T20:38:57.957Z,97993.81
2022-09-12T20:41:25.586Z,97987.88
2022-09-12T20:43:53.392Z,97985.09
2022-09-12T20:46:22.087Z,97982.25
2022-09-12T20:48:49.474Z,97984.31
2022-09-12T20:51:16.683Z,97987.09
2022-09-12T20:53:43.240Z,97978.75
2022-09-12T20:56:09.928Z,97980.41
2022-09-12T20:58:40.411Z,97973.25
2022-09-12T21:01:14.146Z,97978.25
2022-09-12T21:03:43.903Z,97978.06
2022-09-12T21:06:12.615Z,97988.13
2022-09-12T21:08:39.550Z,97984.47
2022-09-12T21:11:06.533Z,97983.44
2022-09-12T21:13:35.908Z,97978.34
2022-09-12T21:16:24.042Z,97981.38
2022-09-12T21:18:59.613Z,97983.56
2022-09-12T21:21:26.642Z,97985.03
2022-09-12T21:23:55.318Z,97992.41
2022-09-12T21:26:21.896Z,97983.25
2022-09-12T21:28:48.592Z,97983.69
2022-09-12T21:31:15.206Z,97986.88
2022-09-12T21:33:42.049Z,97979.59
2022-09-12T21:36:09.608Z,97986.19
2022-09-12T21:38:36.338Z,97984.31
2022-09-12T21:41:10.990Z,97981.81
2022-09-12T21:43:38.277Z,97982.84
2022-09-12T21:46:05.674Z,97999.19
2022-09-12T21:48:33.014Z,97990.75
2022-09-12T21:50:59.708Z,97990.94
2022-09-12T21:53:26.637Z,97987.00
2022-09-12T21:55:53.483Z,97984.59
2022-09-12T21:58:20.156Z,97979.91
2022-09-12T22:00:47.130Z,97973.66
2022-09-12T22:03:14.420Z,97985.00
2022-09-12T22:05:41.039Z,97981.16
2022-09-12T22:08:08.027Z,97979.41
2022-09-12T22:10:34.650Z,97970.31
2022-09-12T22:13:01.602Z,97967.75
2022-09-12T22:15:43.577Z,97970.00
2022-09-12T22:18:10.709Z,97975.34
2022-09-12T22:20:37.317Z,97968.06
2022-09-12T22:23:24.765Z,97949.94
2022-09-12T22:25:54.314Z,97948.91
2022-09-12T22:28:21.268Z,97946.63
2022-09-12T22:30:48.592Z,97944.63
2022-09-12T22:33:15.412Z,97937.66
2022-09-12T22:35:42.411Z,97935.03
2022-09-12T22:38:09.183Z,97928.19
2022-09-12T22:40:35.881Z,97930.78
2022-09-12T22:43:02.548Z,97920.28
2022-09-12T22:45:29.194Z,97914.88
2022-09-12T22:47:59.189Z,97917.69
2022-09-12T22:50:27.597Z,97908.41
2022-09-12T22:52:54.175Z,97914.44
2022-09-12T22:55:20.671Z,97916.84
2022-09-12T22:57:47.243Z,97914.34
2022-09-12T23:00:14.885Z,97914.88
2022-09-12T23:02:41.632Z,97922.56
2022-09-12T23:05:08.621Z,97926.06
2022-09-12T23:07:35.246Z,97935.44
2022-09-12T23:10:01.761Z,97935.84
2022-09-12T23:12:28.302Z,97933.69
2022-09-12T23:14:54.800Z,97935.84
2022-09-12T23:17:21.368Z,97932.00
2022-09-12T23:19:48.390Z,97927.63
2022-09-12T23:22:14.974Z,97935.94
2022-09-12T23:24:41.591Z,97937.25
2022-09-12T23:27:08.307Z,97945.13
2022-09-12T23:29:35.377Z,97948.31
2022-09-12T23:32:03.301Z,97941.88
2022-09-12T23:34:29.892Z,97940.16
2022-09-12T23:36:56.644Z,97939.84
2022-09-12T23:39:23.410Z,97935.00
2022-09-12T23:41:50.381Z,97936.28
2022-09-12T23:44:17.073Z,97934.53
2022-09-12T23:46:43.617Z,97933.97
2022-09-12T23:49:10.115Z,97926.25
2022-09-12T23:51:36.769Z,97922.75
2022-09-12T23:54:03.473Z,97911.91
2022-09-12T23:56:30.057Z,97906.28
2022-09-12T23:58:56.591Z,97905.81
